Aeroporto :
LOGIN :

Iscrizione | Disclaimer

   EN    FR    IT 

 










Sommario :    VFR   VFR Marginale   IFR   IFR Intensivo   IFR Molto Intensivo
Visibilità : 
Base nubi : 
>= 8 km
>= 3000ft
5 / 8 km
1000 / 3000 ft
1500m / 5 km
500 / 1000 ft
800 / 1500m
200 / 500 ft
< 800m
< 200 ft
Simboli :   Temporali  Nebbia  Neve Forte  Precipitazioni Forti  Vento > 20 kt
SIGMETs :   Varie  Temporali  Ghiacco  Turbolenza  Onda orograficha  Ceneri Vulcaniche






- Altitudine del aeroporto : 84 ft


LFBC - Cazaux

ULTIMO METAR :
  • 250230Z AUTO 00000KT 9999 ///CB 09/08 Q1015 TEMPO 3000 BR BECMG NSC

METARs OBSOLETI :
  • 250200Z AUTO 00000KT CAVOK 09/08 Q1015 TEMPO 3000 BR
  • 250130Z AUTO 00000KT CAVOK 08/06 Q1015 TEMPO 3000 BR
  • 250100Z AUTO 35002KT CAVOK 10/09 Q1015 TEMPO 3000 BR
  • 250030Z AUTO VRB03KT 9999 ///CB 09/07 Q1015 TEMPO 3000 BR BECMG NSC
  • 250000Z AUTO 33003KT 9999 ///CB 11/10 Q1015 TEMPO 4000 SHRA BECMG NSC

TAF TAF LFBC
Valido dal 25 a 03 ore il 26 a 03 ore UTC


250200Z 2503/2603 VRB02KT CAVOK
PROB30
TEMPO 2503/2507 3000 BR



MetMap, La meteo Aeronautica in un colpo d'occhio ! - Copyright ORBIFLY Dicembre 2007 - Disclaimer

ORBIFLY MET'MAP TEAM :

Programmazione e sviluppo : Alexandra Zaïnal
Concezione : Baudouin d'Aumeries
Supporto tecnico e logistico : Manuel Goepfert
Aiuto : Marc-Olivier Méhu
Aiuto per la traduzione : Arnaldo La Scala




FONTI E CREDITI :

   NOAA